Time;durP1;ratioP1;P1;durP2;ratioP2;P2;SDS_P1;SDS_P2;PMS_P1;PMS_P2;Temp;Humidity;BMP_temperature;BMP_pressure;BME280_temperature;BME280_humidity;BME280_pressure;Samples;Min_cycle;Max_cycle;Signal;HPM_P1;HPM_P2
2022/11/08 00:01:30;;;;;;;10.85;3.90;;;12.60;86.40;;;;;;5024341;28;20120;-83
2022/11/08 00:03:57;;;;;;;12.98;4.03;;;12.60;86.50;;;;;;5027519;28;20087;-75
2022/11/08 00:14:35;;;;;;;9.90;3.88;;;12.50;86.70;;;;;;5030348;28;20102;-75
2022/11/08 00:17:01;;;;;;;10.35;3.45;;;12.50;87.00;;;;;;5040344;28;20491;-74
2022/11/08 00:19:27;;;;;;;9.25;3.33;;;12.60;86.80;;;;;;5034850;28;20052;-74
2022/11/08 00:21:52;;;;;;;10.77;3.78;;;12.60;86.80;;;;;;5031566;28;20041;-74
2022/11/08 00:24:18;;;;;;;12.05;3.92;;;12.60;86.80;;;;;;5048099;28;20033;-74
2022/11/08 00:26:44;;;;;;;12.80;4.20;;;12.60;86.60;;;;;;5030679;28;20453;-75
2022/11/08 00:29:09;;;;;;;9.45;3.60;;;12.60;86.40;;;;;;5029500;28;20029;-75
2022/11/08 00:31:35;;;;;;;9.25;3.97;;;12.60;86.60;;;;;;5047538;28;20045;-75
2022/11/08 00:34:01;;;;;;;10.30;3.17;;;12.60;86.70;;;;;;5049154;28;20130;-76
2022/11/08 00:36:27;;;;;;;9.63;3.20;;;12.60;86.50;;;;;;5048062;28;20033;-73
2022/11/08 00:38:52;;;;;;;9.05;3.53;;;12.50;86.50;;;;;;5031110;28;20451;-74
2022/11/08 00:41:18;;;;;;;8.13;3.28;;;12.50;86.50;;;;;;5031376;28;20037;-76
2022/11/08 00:43:44;;;;;;;10.77;3.33;;;12.50;86.50;;;;;;5030657;28;20037;-75
2022/11/08 00:46:10;;;;;;;9.38;3.53;;;12.50;86.50;;;;;;5029972;28;20061;-75
2022/11/08 00:48:36;;;;;;;9.18;3.17;;;12.50;86.40;;;;;;5047562;28;20049;-74
2022/11/08 00:51:06;;;;;;;10.93;3.20;;;12.60;86.40;;;;;;5030960;28;20540;-74
2022/11/08 00:53:31;;;;;;;7.82;2.90;;;12.60;86.20;;;;;;5030384;28;20025;-75
2022/11/08 00:56:05;;;;;;;10.55;3.80;;;12.60;86.30;;;;;;5049553;28;20473;-74
2022/11/08 00:58:31;;;;;;;14.63;3.87;;;12.60;86.30;;;;;;5029825;28;20439;-74
2022/11/08 01:00:57;;;;;;;12.23;4.13;;;12.70;86.10;;;;;;5031035;28;20037;-74
2022/11/08 01:03:23;;;;;;;7.72;3.60;;;12.70;86.20;;;;;;5029536;28;20037;-74
2022/11/08 01:05:52;;;;;;;14.43;3.83;;;12.70;86.30;;;;;;5035416;28;20029;-79
2022/11/08 01:08:20;;;;;;;10.63;3.60;;;12.60;86.40;;;;;;5038251;28;20071;-74
2022/11/08 01:10:49;;;;;;;10.35;3.20;;;12.80;86.00;;;;;;5049069;28;20072;-75
2022/11/08 01:13:15;;;;;;;10.50;3.45;;;12.80;85.80;;;;;;5030441;28;20422;-74
2022/11/08 01:15:43;;;;;;;10.27;3.05;;;12.80;85.80;;;;;;5048860;28;20056;-74
2022/11/08 01:18:10;;;;;;;12.50;3.85;;;12.80;85.80;;;;;;5027536;28;20051;-75
2022/11/08 01:20:44;;;;;;;11.95;3.63;;;12.80;85.70;;;;;;5029494;28;20143;-75
2022/11/08 01:23:11;;;;;;;8.98;3.13;;;12.80;85.70;;;;;;5032639;28;20464;-75
2022/11/08 01:25:45;;;;;;;10.20;3.65;;;12.70;85.90;;;;;;5029975;28;20503;-76
2022/11/08 01:28:11;;;;;;;11.83;3.43;;;12.80;85.70;;;;;;5028515;28;20037;-74
2022/11/08 01:30:38;;;;;;;10.43;3.40;;;12.80;85.70;;;;;;5028923;28;20614;-74
2022/11/08 01:33:05;;;;;;;10.55;3.60;;;12.80;85.40;;;;;;5035150;28;20041;-74
2022/11/08 01:35:32;;;;;;;9.35;3.65;;;12.80;85.50;;;;;;5030970;28;20443;-77
2022/11/08 01:37:58;;;;;;;9.43;3.53;;;12.70;85.40;;;;;;5044122;28;20397;-75
2022/11/08 01:40:24;;;;;;;13.55;3.47;;;12.80;85.50;;;;;;5028571;28;20178;-74
2022/11/08 01:42:50;;;;;;;16.02;3.78;;;12.80;85.30;;;;;;5028854;28;20060;-74
2022/11/08 01:45:54;;;;;;;10.65;3.55;;;12.80;85.30;;;;;;5047802;28;20057;-81
2022/11/08 01:48:20;;;;;;;9.25;3.05;;;12.80;85.20;;;;;;5027500;28;20044;-74
2022/11/08 01:50:46;;;;;;;11.73;3.83;;;12.80;85.10;;;;;;5030265;28;20393;-75
2022/11/08 01:53:11;;;;;;;8.07;3.65;;;12.80;85.10;;;;;;5028654;28;20300;-74
2022/11/08 01:55:37;;;;;;;9.10;3.33;;;12.70;85.00;;;;;;5030814;28;20045;-74
2022/11/08 01:58:08;;;;;;;8.88;3.10;;;12.80;85.00;;;;;;5028847;28;20536;-75
2022/11/08 02:00:36;;;;;;;10.35;3.53;;;12.70;85.00;;;;;;5047135;28;20055;-76
2022/11/08 02:03:04;;;;;;;11.63;3.00;;;12.70;85.10;;;;;;5040403;28;20036;-76
2022/11/08 02:05:30;;;;;;;8.30;3.28;;;12.70;85.10;;;;;;5024552;28;20017;-75
2022/11/08 02:07:59;;;;;;;11.52;3.00;;;12.70;84.90;;;;;;5029156;28;20400;-75
2022/11/08 02:10:34;;;;;;;10.63;3.33;;;12.60;85.00;;;;;;5029911;28;20044;-76
2022/11/08 02:13:01;;;;;;;8.00;3.00;;;12.60;85.20;;;;;;5029172;28;20506;-77
2022/11/08 02:15:26;;;;;;;10.05;3.40;;;12.60;85.10;;;;;;5028987;28;20056;-74
2022/11/08 02:17:53;;;;;;;9.68;3.25;;;12.60;85.00;;;;;;5047320;28;20489;-75
2022/11/08 02:20:19;;;;;;;7.47;2.97;;;12.50;85.10;;;;;;5027474;28;20063;-74
2022/11/08 02:22:59;;;;;;;9.02;3.47;;;12.50;85.00;;;;;;5017702;28;20052;-74
2022/11/08 02:25:26;;;;;;;6.57;2.67;;;12.50;84.90;;;;;;5045821;28;20041;-80
2022/11/08 02:27:51;;;;;;;8.32;3.40;;;12.50;84.80;;;;;;5028514;28;20131;-75
2022/11/08 02:30:17;;;;;;;9.32;3.30;;;12.50;84.70;;;;;;5045882;28;20430;-75
2022/11/08 02:32:43;;;;;;;6.47;2.72;;;12.50;84.50;;;;;;5036468;28;20033;-77
2022/11/08 02:35:13;;;;;;;8.68;3.00;;;12.50;84.50;;;;;;5047826;28;20032;-80
2022/11/08 02:37:39;;;;;;;7.35;3.03;;;12.50;84.40;;;;;;5037307;28;20361;-74
2022/11/08 02:40:05;;;;;;;8.93;3.05;;;12.40;84.40;;;;;;5034215;28;20037;-77
2022/11/08 02:42:31;;;;;;;10.00;2.92;;;12.40;84.30;;;;;;5028680;28;20071;-74
2022/11/08 02:44:57;;;;;;;8.48;3.47;;;12.40;84.20;;;;;;5029258;28;20025;-75
2022/11/08 02:47:23;;;;;;;10.70;3.00;;;12.40;84.10;;;;;;5045155;28;20060;-75
2022/11/08 02:49:49;;;;;;;9.57;3.03;;;12.40;83.90;;;;;;5029040;28;20475;-76
2022/11/08 02:52:15;;;;;;;10.00;2.85;;;12.40;83.90;;;;;;5047164;28;20088;-74
2022/11/08 02:54:40;;;;;;;8.40;2.83;;;12.40;84.00;;;;;;5051608;28;20037;-74
2022/11/08 02:57:06;;;;;;;7.05;3.50;;;12.30;83.90;;;;;;5028734;28;20493;-79
2022/11/08 02:59:32;;;;;;;7.85;3.63;;;12.40;83.80;;;;;;5038532;28;20029;-73
2022/11/08 03:01:57;;;;;;;8.85;3.00;;;12.30;83.70;;;;;;5043080;28;20494;-75
2022/11/08 03:04:23;;;;;;;10.25;3.67;;;12.30;83.70;;;;;;5044425;28;20059;-73
2022/11/08 03:06:49;;;;;;;12.05;3.20;;;12.30;83.70;;;;;;5051161;28;20095;-74
2022/11/08 03:09:14;;;;;;;8.05;3.30;;;12.20;83.60;;;;;;5031389;28;20451;-76
2022/11/08 03:11:40;;;;;;;10.15;3.53;;;12.20;83.50;;;;;;5033356;28;20093;-75
2022/11/08 03:14:06;;;;;;;7.68;3.35;;;12.20;83.50;;;;;;5060079;28;20037;-77
2022/11/08 03:16:31;;;;;;;7.72;3.10;;;12.10;83.70;;;;;;5066763;28;20041;-77
2022/11/08 03:18:57;;;;;;;9.82;3.47;;;12.10;83.90;;;;;;5040145;28;20040;-75
2022/11/08 03:21:22;;;;;;;7.97;3.00;;;12.10;84.00;;;;;;5049102;28;20048;-75
2022/11/08 03:23:48;;;;;;;7.85;3.20;;;12.10;83.80;;;;;;5049464;28;20029;-77
2022/11/08 03:26:14;;;;;;;9.48;3.22;;;12.10;83.90;;;;;;5032524;28;20029;-73
2022/11/08 03:28:39;;;;;;;8.48;3.13;;;12.00;84.10;;;;;;5049297;28;20041;-75
2022/11/08 03:31:05;;;;;;;9.02;3.25;;;12.00;83.90;;;;;;5049211;28;20068;-74
2022/11/08 03:33:31;;;;;;;11.85;3.80;;;12.00;83.90;;;;;;5031705;28;20478;-74
2022/11/08 03:35:56;;;;;;;6.32;3.47;;;12.00;83.60;;;;;;5031124;28;20090;-75
2022/11/08 03:38:22;;;;;;;10.85;3.47;;;12.00;83.70;;;;;;5028355;28;20419;-76
2022/11/08 03:40:48;;;;;;;8.10;3.33;;;12.00;83.60;;;;;;5032311;28;20040;-76
2022/11/08 03:43:13;;;;;;;10.55;3.28;;;11.90;83.60;;;;;;5040686;28;20488;-75
2022/11/08 03:45:39;;;;;;;9.90;3.45;;;12.00;83.40;;;;;;5049980;28;20026;-74
2022/11/08 03:48:05;;;;;;;7.95;3.40;;;11.90;83.40;;;;;;5048730;28;20176;-74
2022/11/08 03:50:31;;;;;;;8.05;2.85;;;12.00;83.20;;;;;;5032944;28;20062;-76
2022/11/08 03:52:56;;;;;;;7.40;3.10;;;12.00;83.20;;;;;;5055026;28;20091;-75
2022/11/08 03:55:25;;;;;;;7.95;3.03;;;12.00;82.90;;;;;;5030472;28;20136;-76
2022/11/08 03:57:51;;;;;;;11.00;3.95;;;12.10;82.70;;;;;;5046281;28;20125;-79
2022/11/08 04:00:20;;;;;;;7.10;3.05;;;12.00;82.60;;;;;;5049908;28;20120;-74
2022/11/08 04:02:46;;;;;;;8.32;3.15;;;12.00;82.70;;;;;;5031846;28;20044;-82
2022/11/08 04:05:12;;;;;;;9.85;3.40;;;12.00;82.60;;;;;;5048708;28;20416;-75
2022/11/08 04:07:38;;;;;;;7.25;3.00;;;12.00;82.50;;;;;;5049376;28;20041;-74
2022/11/08 04:10:05;;;;;;;8.52;3.08;;;11.90;82.60;;;;;;5031484;28;20037;-75
2022/11/08 04:15:19;;;;;;;8.73;3.13;;;12.00;82.30;;;;;;5047139;28;20048;-75
2022/11/08 04:23:17;;;;;;;10.35;3.03;;;11.90;82.60;;;;;;5049081;28;20086;-78
2022/11/08 04:25:43;;;;;;;6.82;2.97;;;11.80;82.50;;;;;;5031421;28;20028;-75
2022/11/08 04:28:09;;;;;;;7.50;2.70;;;11.90;82.50;;;;;;5044146;28;20091;-76
2022/11/08 04:30:36;;;;;;;7.63;3.13;;;11.90;82.40;;;;;;5043821;28;20041;-74
2022/11/08 04:33:03;;;;;;;8.45;3.53;;;11.80;82.30;;;;;;5048808;28;20047;-75
2022/11/08 04:35:29;;;;;;;7.82;2.83;;;11.90;82.30;;;;;;5026229;28;20029;-75
2022/11/08 04:37:59;;;;;;;7.65;2.90;;;11.90;82.00;;;;;;5030524;28;20037;-77
2022/11/08 04:40:25;;;;;;;6.90;2.60;;;11.90;82.10;;;;;;5030561;28;20021;-77
2022/11/08 04:42:51;;;;;;;5.70;2.80;;;12.00;81.80;;;;;;5047782;28;20092;-79
2022/11/08 04:45:16;;;;;;;8.00;2.67;;;12.00;81.60;;;;;;5030476;28;20060;-74
2022/11/08 04:47:45;;;;;;;9.98;3.20;;;12.00;81.70;;;;;;5030948;28;20037;-77
2022/11/08 04:50:11;;;;;;;6.90;2.65;;;12.00;81.30;;;;;;5031170;28;20021;-75
2022/11/08 04:52:37;;;;;;;9.00;2.72;;;12.10;80.80;;;;;;5047785;28;20040;-75
2022/11/08 04:55:02;;;;;;;7.03;2.58;;;12.10;80.80;;;;;;5027615;28;20048;-75
2022/11/08 04:57:28;;;;;;;6.07;2.72;;;12.10;80.70;;;;;;5046069;28;20481;-74
2022/11/08 04:59:54;;;;;;;7.40;2.67;;;12.10;80.60;;;;;;5049451;28;20063;-74
2022/11/08 05:02:19;;;;;;;7.55;2.85;;;12.10;80.30;;;;;;5029411;28;20095;-74
2022/11/08 05:04:45;;;;;;;7.28;2.65;;;12.20;79.80;;;;;;5030816;28;20032;-74
2022/11/08 05:07:10;;;;;;;6.53;2.55;;;12.20;79.30;;;;;;5047087;28;20032;-74
2022/11/08 05:09:36;;;;;;;7.10;2.92;;;12.30;79.20;;;;;;5034227;28;20436;-75
2022/11/08 05:12:02;;;;;;;7.65;2.67;;;12.30;79.10;;;;;;5035161;28;20030;-77
2022/11/08 05:14:27;;;;;;;8.30;2.80;;;12.30;78.80;;;;;;5040489;28;20037;-75
2022/11/08 05:16:53;;;;;;;7.95;2.58;;;12.40;78.50;;;;;;5035008;28;20080;-74
2022/11/08 05:23:22;;;;;;;9.25;3.00;;;12.40;78.40;;;;;;5038203;28;20112;-76
2022/11/08 05:24:48;;;;;;;7.63;2.78;;;12.40;78.20;;;;;;5038668;28;20487;-74
2022/11/08 05:27:14;;;;;;;8.77;2.80;;;12.30;78.50;;;;;;5045427;28;20041;-77
2022/11/08 05:29:40;;;;;;;9.35;2.85;;;12.30;78.30;;;;;;5043227;28;20029;-75
2022/11/08 05:32:05;;;;;;;6.60;2.70;;;12.30;78.30;;;;;;5038609;28;20049;-75
2022/11/08 05:34:31;;;;;;;6.57;3.20;;;12.40;77.90;;;;;;5023159;28;20440;-75
2022/11/08 05:36:56;;;;;;;7.90;3.05;;;12.40;77.90;;;;;;5042134;28;20035;-75
2022/11/08 05:39:22;;;;;;;5.93;2.75;;;12.40;77.80;;;;;;5041466;28;20119;-75
2022/11/08 05:41:48;;;;;;;9.18;3.08;;;12.40;77.90;;;;;;5040377;28;20033;-76
2022/11/08 05:44:13;;;;;;;8.05;3.17;;;12.40;77.80;;;;;;5037053;28;20511;-77
2022/11/08 05:46:39;;;;;;;7.50;3.10;;;12.40;77.90;;;;;;5027597;28;20047;-75
2022/11/08 05:49:04;;;;;;;7.18;2.90;;;12.40;77.90;;;;;;5038172;28;20120;-75
2022/11/08 05:51:30;;;;;;;7.30;2.80;;;12.30;78.00;;;;;;5030609;28;20371;-77
2022/11/08 05:53:56;;;;;;;9.05;3.08;;;12.30;78.10;;;;;;5033004;28;20527;-76
2022/11/08 05:56:22;;;;;;;10.60;3.35;;;12.30;78.10;;;;;;5026038;28;20037;-74
2022/11/08 05:58:47;;;;;;;7.43;3.40;;;12.30;78.30;;;;;;5035539;28;20033;-76
2022/11/08 06:01:16;;;;;;;6.63;2.92;;;12.20;78.50;;;;;;5021663;28;20613;-74
2022/11/08 06:03:42;;;;;;;6.75;2.88;;;12.20;78.60;;;;;;5025189;28;20386;-75
2022/11/08 06:06:11;;;;;;;5.53;2.40;;;12.20;78.50;;;;;;5034462;28;20458;-75
2022/11/08 06:08:37;;;;;;;7.10;2.97;;;12.20;78.70;;;;;;5049492;28;20103;-76
2022/11/08 06:11:05;;;;;;;5.85;2.70;;;12.10;78.80;;;;;;5042910;28;20090;-77
2022/11/08 06:13:31;;;;;;;7.30;2.70;;;12.10;78.80;;;;;;5044176;28;20088;-75
2022/11/08 06:16:01;;;;;;;8.32;2.60;;;12.20;78.60;;;;;;5039647;28;20052;-76
2022/11/08 06:18:28;;;;;;;8.52;2.78;;;12.10;78.70;;;;;;5020995;28;20033;-75
2022/11/08 06:20:54;;;;;;;9.68;3.22;;;12.10;78.80;;;;;;5035640;28;20138;-77
2022/11/08 06:23:19;;;;;;;6.93;2.63;;;12.10;78.80;;;;;;5039850;28;20481;-75
2022/11/08 06:25:46;;;;;;;5.30;2.90;;;12.10;78.90;;;;;;5038494;28;20045;-75
2022/11/08 06:28:13;;;;;;;5.00;2.63;;;12.10;78.70;;;;;;5022247;28;20076;-75
2022/11/08 06:30:39;;;;;;;7.47;2.60;;;12.10;78.50;;;;;;5041518;28;20116;-76
2022/11/08 06:33:04;;;;;;;6.00;2.97;;;12.10;78.50;;;;;;5041810;28;20045;-75
2022/11/08 06:35:30;;;;;;;7.15;2.60;;;12.10;78.50;;;;;;5041712;28;20107;-76
2022/11/08 06:37:56;;;;;;;8.35;2.95;;;12.10;78.30;;;;;;5027465;28;20044;-76
2022/11/08 06:40:21;;;;;;;9.30;3.25;;;12.10;78.30;;;;;;5024447;28;20057;-74
2022/11/08 06:42:47;;;;;;;6.55;2.92;;;12.10;78.10;;;;;;5045818;28;20483;-75
2022/11/08 06:45:13;;;;;;;7.70;3.33;;;12.10;77.90;;;;;;5047625;28;20026;-74
2022/11/08 06:47:38;;;;;;;6.85;2.58;;;12.10;78.00;;;;;;5044198;28;20044;-74
2022/11/08 06:50:04;;;;;;;6.60;2.85;;;12.20;77.70;;;;;;5047334;28;20116;-77
2022/11/08 06:52:30;;;;;;;8.57;3.08;;;12.20;77.60;;;;;;5028104;28;20072;-74
2022/11/08 06:54:56;;;;;;;8.13;3.10;;;12.20;77.70;;;;;;5026952;28;20068;-75
2022/11/08 06:57:21;;;;;;;8.38;3.47;;;12.10;77.90;;;;;;5044312;28;20449;-73
2022/11/08 06:59:47;;;;;;;7.10;3.22;;;12.10;77.90;;;;;;5028442;28;20388;-74
2022/11/08 07:02:12;;;;;;;7.97;3.25;;;12.20;77.80;;;;;;5026186;28;20037;-73
2022/11/08 07:04:38;;;;;;;6.20;2.78;;;12.20;77.90;;;;;;5028076;28;20056;-75
2022/11/08 07:07:04;;;;;;;6.88;3.22;;;12.20;77.60;;;;;;5027167;28;20025;-76
2022/11/08 07:09:29;;;;;;;6.82;2.95;;;12.20;77.60;;;;;;5044355;28;20036;-77
2022/11/08 07:11:55;;;;;;;7.22;2.90;;;12.20;77.80;;;;;;5028243;28;20100;-77
2022/11/08 07:14:21;;;;;;;8.82;2.72;;;12.20;77.80;;;;;;5046899;28;20067;-77
2022/11/08 07:16:47;;;;;;;6.78;3.20;;;12.20;77.80;;;;;;5045751;28;20045;-76
2022/11/08 07:19:12;;;;;;;5.50;3.00;;;12.30;78.10;;;;;;5047007;28;20370;-75
2022/11/08 07:21:38;;;;;;;5.97;2.75;;;12.30;77.80;;;;;;5030112;28;20028;-74
2022/11/08 07:24:04;;;;;;;7.20;3.20;;;12.30;77.90;;;;;;5046201;28;20381;-74
2022/11/08 07:26:29;;;;;;;7.00;3.25;;;12.20;77.90;;;;;;5029203;28;20072;-76
2022/11/08 07:28:55;;;;;;;8.02;3.35;;;12.30;77.50;;;;;;5028964;28;20044;-74
2022/11/08 07:31:22;;;;;;;8.80;3.28;;;12.30;77.50;;;;;;5029078;28;20041;-74
2022/11/08 07:33:48;;;;;;;5.13;2.80;;;12.30;77.50;;;;;;5046911;28;20032;-74
2022/11/08 07:36:14;;;;;;;11.88;5.50;;;12.30;77.50;;;;;;5029052;28;20029;-75
2022/11/08 07:38:39;;;;;;;8.50;3.20;;;12.30;77.70;;;;;;5026310;28;20037;-83
2022/11/08 07:41:05;;;;;;;7.85;3.40;;;12.30;77.50;;;;;;5033069;28;20021;-84
2022/11/08 07:43:31;;;;;;;7.07;4.07;;;12.30;77.30;;;;;;5042391;28;20477;-79
2022/11/08 07:45:58;;;;;;;7.25;3.80;;;12.40;77.50;;;;;;5030740;28;20044;-81
2022/11/08 07:48:28;;;;;;;8.13;2.85;;;12.40;77.40;;;;;;5047179;28;20043;-82
2022/11/08 07:50:54;;;;;;;7.95;2.92;;;12.40;77.40;;;;;;5053287;28;20040;-81
2022/11/08 07:53:20;;;;;;;7.07;2.90;;;12.40;77.10;;;;;;5059833;28;20372;-81
2022/11/08 07:55:49;;;;;;;7.55;3.15;;;12.40;77.10;;;;;;5035539;28;20388;-79
2022/11/08 07:58:15;;;;;;;7.00;3.03;;;12.50;77.00;;;;;;5050136;28;20037;-83
2022/11/08 08:00:43;;;;;;;8.60;3.60;;;12.50;77.20;;;;;;5048748;28;20049;-82
2022/11/08 08:03:11;;;;;;;5.90;2.67;;;12.50;77.10;;;;;;5049784;28;20033;-83
2022/11/08 08:05:41;;;;;;;10.75;2.97;;;12.50;77.10;;;;;;5031384;28;20026;-83
2022/11/08 08:08:07;;;;;;;4.95;2.60;;;12.60;76.90;;;;;;5031090;28;20045;-82
2022/11/08 08:10:33;;;;;;;6.03;2.97;;;12.60;76.90;;;;;;5038305;28;20134;-83
2022/11/08 08:12:59;;;;;;;6.40;2.95;;;12.60;76.80;;;;;;5049107;28;20087;-83
2022/11/08 08:15:25;;;;;;;6.70;3.10;;;12.70;76.60;;;;;;5048165;28;20039;-83
2022/11/08 08:17:51;;;;;;;6.13;2.95;;;12.70;76.60;;;;;;5049936;28;20061;-83
2022/11/08 08:20:16;;;;;;;9.00;3.03;;;12.80;76.20;;;;;;5030215;28;20350;-80
2022/11/08 08:22:47;;;;;;;9.82;3.10;;;12.80;76.30;;;;;;5024631;28;20037;-81
2022/11/08 08:25:13;;;;;;;9.90;2.97;;;12.80;76.30;;;;;;5030926;28;20041;-82
2022/11/08 08:27:39;;;;;;;7.28;2.92;;;12.90;76.20;;;;;;5030752;28;20514;-81
2022/11/08 08:30:05;;;;;;;8.50;3.10;;;12.90;76.00;;;;;;5049818;28;20057;-80
2022/11/08 08:32:31;;;;;;;7.47;3.15;;;12.90;76.00;;;;;;5044323;28;20029;-84
2022/11/08 08:34:57;;;;;;;8.48;3.50;;;13.00;76.10;;;;;;5044870;28;20025;-82
2022/11/08 08:37:22;;;;;;;7.30;3.28;;;13.00;76.20;;;;;;5042527;28;20036;-79
2022/11/08 08:39:48;;;;;;;8.15;3.40;;;13.10;76.50;;;;;;5050939;28;20082;-79
2022/11/08 08:42:14;;;;;;;7.38;3.25;;;13.10;76.00;;;;;;5043618;28;20027;-78
2022/11/08 08:44:39;;;;;;;9.20;2.90;;;13.10;76.00;;;;;;5046367;28;20461;-79
2022/11/08 08:47:05;;;;;;;5.80;3.00;;;13.10;75.60;;;;;;5029777;28;20044;-79
2022/11/08 08:49:31;;;;;;;9.35;3.30;;;13.20;75.70;;;;;;5047751;28;20107;-78
2022/11/08 08:51:56;;;;;;;5.78;2.97;;;13.30;75.40;;;;;;5030277;28;20020;-78
2022/11/08 08:54:22;;;;;;;6.97;3.28;;;13.40;75.20;;;;;;5026939;28;20090;-78
2022/11/08 08:56:47;;;;;;;8.45;3.22;;;13.60;75.10;;;;;;5043236;28;20059;-79
2022/11/08 08:59:13;;;;;;;7.50;2.78;;;13.60;74.70;;;;;;5024726;28;20029;-78
2022/11/08 09:01:39;;;;;;;7.63;3.05;;;13.60;74.50;;;;;;5046547;28;20036;-78
2022/11/08 09:04:05;;;;;;;8.02;3.67;;;13.70;74.30;;;;;;5023897;28;20033;-78
2022/11/08 09:06:30;;;;;;;7.93;3.20;;;13.70;74.00;;;;;;5028336;28;20029;-77
2022/11/08 09:08:56;;;;;;;7.60;3.70;;;13.70;74.00;;;;;;5047795;28;20040;-73
2022/11/08 09:11:22;;;;;;;6.60;2.97;;;13.70;74.20;;;;;;5048926;28;20033;-76
2022/11/08 09:13:47;;;;;;;7.72;3.20;;;13.70;74.10;;;;;;5047362;28;20119;-75
2022/11/08 09:16:13;;;;;;;5.35;2.67;;;13.70;74.00;;;;;;5047759;28;20029;-75
2022/11/08 09:18:39;;;;;;;9.20;2.88;;;13.70;74.10;;;;;;5046043;28;20033;-75
2022/11/08 09:21:05;;;;;;;6.47;2.80;;;13.70;74.30;;;;;;5028224;28;20049;-75
2022/11/08 09:23:31;;;;;;;5.88;2.95;;;13.70;74.90;;;;;;5047424;28;20048;-75
2022/11/08 09:26:02;;;;;;;9.73;3.30;;;13.70;74.70;;;;;;5047981;28;20025;-75
2022/11/08 09:28:30;;;;;;;8.52;3.28;;;13.70;74.70;;;;;;5027968;28;20128;-75
2022/11/08 09:30:59;;;;;;;6.38;3.08;;;13.70;74.90;;;;;;5029867;28;20033;-75
2022/11/08 09:33:24;;;;;;;7.20;3.33;;;13.70;75.00;;;;;;5049404;28;20110;-74
2022/11/08 09:35:52;;;;;;;7.70;3.28;;;13.60;75.10;;;;;;5047274;28;20068;-74
2022/11/08 09:38:18;;;;;;;8.35;2.92;;;13.70;75.20;;;;;;5044666;28;20035;-75
2022/11/08 09:40:50;;;;;;;5.60;2.75;;;13.70;74.80;;;;;;5046804;28;20047;-76
2022/11/08 09:43:43;;;;;;;6.07;2.80;;;13.80;75.00;;;;;;5025986;28;20039;-74
2022/11/08 09:46:15;;;;;;;6.70;3.08;;;13.80;74.90;;;;;;5045889;28;20029;-75
2022/11/08 09:48:43;;;;;;;7.25;3.00;;;13.90;75.10;;;;;;5046981;28;20128;-74
2022/11/08 09:51:14;;;;;;;11.00;3.15;;;13.90;75.00;;;;;;5043943;28;20029;-76
2022/11/08 09:53:48;;;;;;;6.82;2.80;;;13.90;75.00;;;;;;5039673;28;20025;-75
2022/11/08 09:56:32;;;;;;;6.50;2.90;;;14.10;74.90;;;;;;5033843;28;20049;-75
2022/11/08 09:59:20;;;;;;;8.02;3.05;;;14.10;75.20;;;;;;5029748;28;20440;-75
2022/11/08 10:01:47;;;;;;;7.10;2.90;;;14.10;74.80;;;;;;5040168;28;20044;-77
2022/11/08 10:04:20;;;;;;;7.32;3.05;;;14.20;74.70;;;;;;5028842;28;20116;-75
2022/11/08 10:07:16;;;;;;;6.75;2.95;;;14.30;74.70;;;;;;5029057;28;20102;-76
2022/11/08 10:09:50;;;;;;;7.60;3.13;;;14.30;74.80;;;;;;5029659;28;20052;-75
2022/11/08 10:12:27;;;;;;;6.20;2.75;;;14.50;74.30;;;;;;5023741;28;20025;-74
2022/11/08 10:14:55;;;;;;;7.25;3.10;;;14.60;74.10;;;;;;5034396;28;20037;-76
2022/11/08 10:17:42;;;;;;;7.88;3.08;;;14.70;73.50;;;;;;5045238;28;20049;-75
2022/11/08 10:20:11;;;;;;;8.10;2.97;;;15.00;73.40;;;;;;5028668;28;20068;-74
2022/11/08 10:22:53;;;;;;;7.70;3.35;;;15.10;73.00;;;;;;5045191;28;20053;-75
2022/11/08 10:25:35;;;;;;;9.63;3.58;;;15.10;72.40;;;;;;5028662;28;20040;-74
2022/11/08 10:28:02;;;;;;;7.35;2.70;;;15.10;72.90;;;;;;5038841;28;20129;-74
2022/11/08 10:30:39;;;;;;;6.78;2.80;;;15.00;72.80;;;;;;5031510;28;20033;-75
2022/11/08 10:33:17;;;;;;;9.55;3.20;;;15.30;72.60;;;;;;5031196;28;20040;-76
2022/11/08 10:35:52;;;;;;;7.97;3.15;;;15.50;72.10;;;;;;5044343;28;20178;-75
2022/11/08 10:38:29;;;;;;;8.05;3.05;;;15.60;71.30;;;;;;5023847;28;20028;-77
2022/11/08 10:41:03;;;;;;;7.65;3.05;;;15.80;71.10;;;;;;5046231;28;20036;-78
2022/11/08 10:43:40;;;;;;;;;;;15.70;71.00;;;;;;5027643;28;20021;-78
2022/11/08 10:46:25;;;;;;;13.52;3.03;;;15.60;70.80;;;;;;5045211;28;19911;-77
2022/11/08 10:48:51;;;;;;;6.75;2.88;;;15.60;71.00;;;;;;5040348;28;20113;-77
2022/11/08 10:51:17;;;;;;;8.00;3.22;;;15.70;71.00;;;;;;5046444;28;20424;-78
2022/11/08 10:53:43;;;;;;;7.72;2.80;;;15.70;70.90;;;;;;5046563;28;20429;-78
2022/11/08 10:56:09;;;;;;;10.80;3.08;;;15.80;70.50;;;;;;5041292;28;20021;-79
2022/11/08 10:58:40;;;;;;;8.90;2.67;;;15.80;70.40;;;;;;5022414;28;20052;-78
2022/11/08 11:01:20;;;;;;;6.35;2.70;;;15.90;70.30;;;;;;5028345;28;20049;-79
2022/11/08 11:03:48;;;;;;;5.78;2.60;;;16.00;70.30;;;;;;5026001;28;20044;-79
2022/11/08 11:06:23;;;;;;;7.03;3.03;;;16.00;70.30;;;;;;5042064;28;20108;-78
2022/11/08 11:08:53;;;;;;;6.82;2.90;;;16.10;69.90;;;;;;5034298;28;20504;-78
2022/11/08 11:11:21;;;;;;;6.72;2.80;;;16.10;70.20;;;;;;5021057;28;20437;-78
2022/11/08 11:14:03;;;;;;;7.40;2.60;;;16.10;70.10;;;;;;5036240;28;20121;-79
2022/11/08 11:16:29;;;;;;;9.00;3.15;;;16.20;70.10;;;;;;5046798;28;20241;-79
2022/11/08 11:18:56;;;;;;;7.15;3.10;;;16.30;70.00;;;;;;5041204;28;20376;-79
2022/11/08 11:21:23;;;;;;;9.18;3.30;;;16.20;70.40;;;;;;5031812;28;20053;-80
2022/11/08 11:23:54;;;;;;;7.07;2.65;;;16.10;70.40;;;;;;5027588;28;20051;-79
2022/11/08 11:26:29;;;;;;;6.05;2.78;;;16.10;70.50;;;;;;5032217;28;20071;-78
2022/11/08 11:29:13;;;;;;;6.68;3.00;;;16.10;70.90;;;;;;5041236;28;20068;-78
2022/11/08 11:31:42;;;;;;;7.95;2.75;;;16.10;71.20;;;;;;5022674;28;20353;-79
2022/11/08 11:34:16;;;;;;;9.38;3.30;;;16.10;71.20;;;;;;5042474;28;20029;-78
2022/11/08 11:36:49;;;;;;;7.60;2.70;;;16.10;71.20;;;;;;5041171;28;20118;-78
2022/11/08 11:39:26;;;;;;;7.32;3.20;;;16.10;71.40;;;;;;5044649;28;20043;-78
2022/11/08 11:42:17;;;;;;;7.75;2.83;;;16.30;71.10;;;;;;5048386;28;20039;-79
2022/11/08 11:45:09;;;;;;;7.25;3.15;;;16.40;71.10;;;;;;5029269;28;20500;-80
2022/11/08 11:47:56;;;;;;;6.45;2.90;;;16.40;70.70;;;;;;5035137;28;20053;-78
2022/11/08 11:50:36;;;;;;;7.53;2.67;;;16.40;70.70;;;;;;5046264;28;20041;-79
2022/11/08 11:53:06;;;;;;;9.90;3.40;;;16.50;71.20;;;;;;5042288;28;20048;-79
2022/11/08 11:55:55;;;;;;;7.10;2.78;;;16.50;71.00;;;;;;5039867;28;20036;-79
2022/11/08 11:58:57;;;;;;;6.63;2.90;;;16.50;71.20;;;;;;5037195;28;20053;-79
2022/11/08 12:01:29;;;;;;;6.57;3.00;;;16.60;70.80;;;;;;5041521;28;20025;-79
2022/11/08 12:04:04;;;;;;;8.13;2.95;;;16.60;70.80;;;;;;5053089;28;20029;-79
2022/11/08 12:07:06;;;;;;;9.85;3.03;;;16.60;70.90;;;;;;5039087;28;20037;-78
2022/11/08 12:10:04;;;;;;;8.32;3.40;;;16.60;70.70;;;;;;5020713;28;20033;-79
2022/11/08 12:12:55;;;;;;;9.40;2.63;;;16.50;71.10;;;;;;5043716;28;20040;-77
2022/11/08 12:15:42;;;;;;;8.90;3.28;;;16.70;70.80;;;;;;5046920;28;20041;-78
2022/11/08 12:18:16;;;;;;;13.93;3.17;;;16.70;70.70;;;;;;5048588;28;20130;-79
2022/11/08 12:20:54;;;;;;;10.73;2.75;;;16.70;71.00;;;;;;5046701;28;20053;-79
2022/11/08 12:23:48;;;;;;;8.98;3.17;;;16.80;71.00;;;;;;5028648;28;20041;-79
2022/11/08 12:26:52;;;;;;;10.15;2.45;;;16.90;71.10;;;;;;5042654;28;20025;-81
2022/11/08 12:29:53;;;;;;;10.35;2.55;;;16.90;70.90;;;;;;5045497;28;20170;-82
2022/11/08 12:33:00;;;;;;;7.10;3.08;;;17.00;70.40;;;;;;5047676;28;20096;-83
2022/11/08 12:35:42;;;;;;;8.32;2.95;;;16.80;71.00;;;;;;4994845;28;20107;-82
2022/11/08 12:38:22;;;;;;;9.55;3.08;;;16.60;71.70;;;;;;5031727;28;20041;-83
2022/11/08 12:40:55;;;;;;;8.50;3.15;;;16.60;72.00;;;;;;5048754;28;20090;-82
2022/11/08 12:43:32;;;;;;;7.70;3.28;;;16.50;72.40;;;;;;5048036;28;20535;-83
2022/11/08 12:46:17;;;;;;;6.75;3.35;;;16.50;72.50;;;;;;5029857;28;20029;-84
2022/11/08 12:49:01;;;;;;;7.70;3.03;;;16.50;72.80;;;;;;5025923;28;20048;-80
2022/11/08 12:51:32;;;;;;;9.27;3.47;;;16.50;73.10;;;;;;5028922;28;20438;-83
2022/11/08 12:54:19;;;;;;;8.60;2.97;;;16.50;73.00;;;;;;5048052;28;20124;-82
2022/11/08 12:56:47;;;;;;;10.00;3.03;;;16.30;73.20;;;;;;5042496;28;20025;-81
2022/11/08 12:59:18;;;;;;;7.72;2.78;;;16.30;73.20;;;;;;5021489;28;20033;-74
2022/11/08 13:01:44;;;;;;;10.05;3.25;;;16.30;73.60;;;;;;5048849;28;20083;-75
2022/11/08 13:04:34;;;;;;;7.85;3.30;;;16.30;73.70;;;;;;5029383;28;20118;-75
2022/11/08 13:07:29;;;;;;;9.85;3.22;;;16.30;73.90;;;;;;5046179;28;20120;-75
2022/11/08 13:10:22;;;;;;;8.50;2.58;;;16.30;73.70;;;;;;5041669;28;20037;-77
2022/11/08 13:12:57;;;;;;;12.48;2.78;;;16.40;73.50;;;;;;5042390;28;20033;-76
2022/11/08 13:15:24;;;;;;;10.35;2.80;;;16.40;73.50;;;;;;5045982;28;20459;-77
2022/11/08 13:18:10;;;;;;;7.22;2.95;;;16.30;73.80;;;;;;5045899;28;20481;-77